»·PEaware :: UAL1200 KSFO-KLAX

UAL1200 :: KSFO-KLAX

FLIGHT INFORMATION

Flight Status: Arrived
Operator:
United Airlines
More flights by this operator :: More flights under this callsign
Pilot: Alfredo R. (12181)
Aircraft: AIRBUS A320
(A320)
More flights by this aircraft type
Origin: KSFO San Francisco Intl
United States
Destination: KLAX Los Angeles Intl
United States
More flights between these airports :: More routes between these airports
Route: SSTIK4 EBAYE BURGL IRNMN2
File this flight plan on PilotEdge
Remarks:
Altitude:
(Current/Filed)
330ft
Speed:
(Current/Filed)
425kts
Departed: 06-Feb-20 08:25 PM
Arrived: 06-Feb-20 09:21 PM
Distance/Time
Traveled:
293nm/0:56
Distance/Time
To Go:
Arrived

Flight Plot

Page will automatically refresh every two minutes.

Flight plan parsing failed; only flown route is shown


Map Options




Map Legend


Flown Route
Filed Route
Departure Airport
Arrival Airport
Navaid (VOR, NDB)
Fix

Horizontal Profiles

Position Reports

Time Latitude Longitude Heading Altitude Ground
Speed
06-Feb-20 19:34 37.617689 -122.388834 159 31ft 0kts
06-Feb-20 19:35 37.617689 -122.388834 159 31ft 0kts
06-Feb-20 19:36 37.617689 -122.388834 159 31ft 0kts
06-Feb-20 19:37 37.617689 -122.388834 159 31ft 0kts
06-Feb-20 19:38 37.617689 -122.388834 159 31ft 0kts
06-Feb-20 19:39 37.617689 -122.388834 159 31ft 0kts
06-Feb-20 19:40 37.617689 -122.388834 159 31ft 0kts
06-Feb-20 19:41 37.617689 -122.388834 159 31ft 0kts
06-Feb-20 19:42 37.617689 -122.388834 159 31ft 0kts
06-Feb-20 19:43 37.617689 -122.388834 159 31ft 0kts
06-Feb-20 19:44 37.617689 -122.388834 159 31ft 0kts
06-Feb-20 19:45 37.617689 -122.388834 159 31ft 0kts
06-Feb-20 19:46 37.617689 -122.388834 159 31ft 0kts
06-Feb-20 19:47 37.617689 -122.388834 159 31ft 0kts
06-Feb-20 19:48 37.617689 -122.388834 159 31ft 0kts
06-Feb-20 19:49 37.617689 -122.388834 159 31ft 0kts
06-Feb-20 19:50 37.617689 -122.388834 159 31ft 0kts
06-Feb-20 19:51 37.617689 -122.388834 159 31ft 0kts
06-Feb-20 19:52 37.617689 -122.388834 159 31ft 0kts
06-Feb-20 19:53 37.617689 -122.388834 159 31ft 0kts
06-Feb-20 19:54 37.617689 -122.388834 159 31ft 0kts
06-Feb-20 19:55 37.617689 -122.388834 159 31ft 0kts
06-Feb-20 19:56 37.617689 -122.388834 159 31ft 0kts
06-Feb-20 19:57 37.617689 -122.388834 159 31ft 0kts
06-Feb-20 19:58 37.617689 -122.388834 159 31ft 0kts
06-Feb-20 19:59 37.617689 -122.388834 159 31ft 0kts
06-Feb-20 20:00 37.617689 -122.388835 159 31ft 0kts
06-Feb-20 20:01 37.618212 -122.389084 174 31ft 2kts
06-Feb-20 20:02 37.618547 -122.388883 230 31ft 3kts
06-Feb-20 20:03 37.618990 -122.390575 298 31ft 7kts
06-Feb-20 20:04 37.619349 -122.391420 297 31ft 0kts
06-Feb-20 20:05 37.619349 -122.391420 297 31ft 0kts
06-Feb-20 20:06 37.619349 -122.391420 297 31ft 0kts
06-Feb-20 20:07 37.619349 -122.391420 297 31ft 0kts
06-Feb-20 20:08 37.619349 -122.391420 297 31ft 0kts
06-Feb-20 20:09 37.619349 -122.391420 297 31ft 0kts
06-Feb-20 20:10 37.619349 -122.391420 297 31ft 0kts
06-Feb-20 20:11 37.619349 -122.391420 297 31ft 0kts
06-Feb-20 20:12 37.619349 -122.391420 297 31ft 0kts
06-Feb-20 20:13 37.619364 -122.391455 297 31ft 1kts
06-Feb-20 20:14 37.620287 -122.392347 25 31ft 7kts
06-Feb-20 20:15 37.622369 -122.390582 72 30ft 11kts
06-Feb-20 20:16 37.621824 -122.387159 117 31ft 8kts
06-Feb-20 20:17 37.620023 -122.382893 118 31ft 18kts
06-Feb-20 20:18 37.616488 -122.379724 205 31ft 17kts
06-Feb-20 20:19 37.612253 -122.382533 208 31ft 16kts
06-Feb-20 20:20 37.609289 -122.383817 126 31ft 7kts
06-Feb-20 20:21 37.609050 -122.383365 122 31ft 0kts
06-Feb-20 20:22 37.609050 -122.383365 122 31ft 0kts
06-Feb-20 20:23 37.608985 -122.382244 37 29ft 7kts
06-Feb-20 20:24 37.626281 -122.370761 23 72ft 168kts
06-Feb-20 20:25 37.669270 -122.360958 347 2575ft 165kts
06-Feb-20 20:26 37.690557 -122.412504 230 3817ft 264kts
06-Feb-20 20:27 37.617555 -122.441436 194 6902ft 290kts
06-Feb-20 20:28 37.536952 -122.462595 192 9811ft 308kts
06-Feb-20 20:29 37.454630 -122.432229 125 11035ft 376kts
06-Feb-20 20:30 37.384113 -122.331212 132 13639ft 402kts
06-Feb-20 20:31 37.307623 -122.227164 132 16293ft 418kts
06-Feb-20 20:32 37.226955 -122.118008 133 18771ft 430kts
06-Feb-20 20:33 37.145019 -122.007529 133 19166ft 434kts
06-Feb-20 20:34 37.062859 -121.897131 133 19683ft 441kts
06-Feb-20 20:35 36.978353 -121.783973 133 22009ft 450kts
06-Feb-20 20:36 36.891371 -121.667934 133 23896ft 463kts
06-Feb-20 20:37 36.803235 -121.551095 133 26090ft 461kts
06-Feb-20 20:38 36.715432 -121.434792 133 28098ft 458kts
06-Feb-20 20:39 36.628214 -121.319918 134 29734ft 458kts
06-Feb-20 20:40 36.540085 -121.204358 133 31110ft 459kts
06-Feb-20 20:41 36.452663 -121.089766 132 32419ft 457kts
06-Feb-20 20:43 36.368472 -120.971197 129 33176ft 456kts
06-Feb-20 20:44 36.285592 -120.852201 129 33170ft 454kts
06-Feb-20 20:45 36.202613 -120.733469 129 33167ft 451kts
06-Feb-20 20:46 36.119593 -120.615098 129 33167ft 454kts
06-Feb-20 20:47 36.036003 -120.496348 129 33167ft 455kts
06-Feb-20 20:48 35.952706 -120.378471 129 33167ft 455kts
06-Feb-20 20:49 35.868095 -120.261590 138 33162ft 455kts
06-Feb-20 20:50 35.760021 -120.178537 148 33166ft 459kts
06-Feb-20 20:51 35.651729 -120.096997 148 33167ft 456kts
06-Feb-20 20:52 35.543384 -120.015240 148 33165ft 456kts
06-Feb-20 20:53 35.438050 -119.935987 148 33172ft 456kts
06-Feb-20 20:54 35.329267 -119.854413 149 31928ft 451kts
06-Feb-20 20:55 35.226006 -119.765195 143 30307ft 457kts
06-Feb-20 20:56 35.125082 -119.671017 143 28721ft 459kts
06-Feb-20 20:57 35.023027 -119.576022 143 27256ft 458kts
06-Feb-20 20:58 34.921196 -119.481693 143 25790ft 449kts
06-Feb-20 20:59 34.821258 -119.391949 144 24294ft 434kts
06-Feb-20 21:00 34.724815 -119.306619 145 22758ft 418kts
06-Feb-20 21:01 34.631644 -119.225347 145 21082ft 409kts
06-Feb-20 21:02 34.540112 -119.145807 144 19287ft 398kts
06-Feb-20 21:03 34.450819 -119.066778 144 17477ft 389kts
06-Feb-20 21:03 34.377896 -119.003426 144 15980ft 382kts
06-Feb-20 21:04 34.293343 -118.928104 143 14200ft 375kts
06-Feb-20 21:06 34.199156 -118.842010 142 12105ft 345kts
06-Feb-20 21:06 34.139860 -118.783072 136 10596ft 319kts
06-Feb-20 21:07 34.074405 -118.712057 136 8988ft 305kts
06-Feb-20 21:09 34.025726 -118.619798 90 9014ft 283kts
06-Feb-20 21:09 34.018287 -118.541264 92 8369ft 280kts
06-Feb-20 21:10 34.010541 -118.453995 82 7489ft 241kts
06-Feb-20 21:11 34.023075 -118.377685 75 6704ft 233kts
06-Feb-20 21:12 34.033269 -118.302690 81 5634ft 232kts
06-Feb-20 21:13 34.037743 -118.225621 82 4450ft 228kts
06-Feb-20 21:14 34.003792 -118.179183 173 3354ft 211kts
06-Feb-20 21:15 33.961139 -118.202950 242 2588ft 189kts
06-Feb-20 21:16 33.949330 -118.261065 264 1889ft 164kts
06-Feb-20 21:17 33.944175 -118.312529 262 1177ft 154kts
06-Feb-20 21:18 33.939491 -118.362847 263 538ft 143kts
06-Feb-20 21:19 33.935610 -118.401291 278 119ft 78kts
06-Feb-20 21:20 33.936497 -118.412650 346 126ft 14kts
06-Feb-20 21:21 33.937673 -118.410745 83 126ft 12kts
06-Feb-20 21:22 33.938342 -118.404171 83 122ft 23kts
06-Feb-20 21:23 33.939000 -118.398277 53 113ft 12kts
06-Feb-20 21:24 33.941552 -118.397957 71 113ft 4kts
06-Feb-20 21:25 33.941593 -118.397703 82 113ft 0kts
06-Feb-20 21:26 33.941593 -118.397704 82 113ft 0kts
06-Feb-20 21:27 33.941593 -118.397704 82 113ft 0kts

Navigation Log

Ident Type
Flight plan parsing failed, navigation log unavailable